createdAt,value
2022-09-22T00:01:13.737Z,54.06
2022-09-22T00:03:42.822Z,54.31
2022-09-22T00:06:11.309Z,54.33
2022-09-22T00:08:41.084Z,53.96
2022-09-22T00:11:12.436Z,54.23
2022-09-22T00:13:39.443Z,54.17
2022-09-22T00:16:10.483Z,54.13
2022-09-22T00:18:38.570Z,54.09
2022-09-22T00:21:07.564Z,54.04
2022-09-22T00:23:34.516Z,54.03
2022-09-22T00:26:07.716Z,53.98
2022-09-22T00:28:34.667Z,54.11
2022-09-22T00:31:10.710Z,53.80
2022-09-22T00:33:40.200Z,53.93
2022-09-22T00:36:06.991Z,53.81
2022-09-22T00:38:33.942Z,53.89
2022-09-22T00:41:01.413Z,53.76
2022-09-22T00:43:29.897Z,53.66
2022-09-22T00:46:00.539Z,53.80
2022-09-22T00:48:28.414Z,53.77
2022-09-22T00:50:55.775Z,53.61
2022-09-22T00:53:22.729Z,53.72
2022-09-22T00:55:56.030Z,53.57
2022-09-22T00:58:28.826Z,53.66
2022-09-22T01:00:57.548Z,54.05
2022-09-22T01:03:29.699Z,54.05
2022-09-22T01:05:58.388Z,53.83
2022-09-22T01:08:25.861Z,54.02
2022-09-22T01:10:54.246Z,54.11
2022-09-22T01:13:25.865Z,54.07
2022-09-22T01:16:29.585Z,54.17
2022-09-22T01:19:22.799Z,54.08
2022-09-22T01:21:53.098Z,54.04
2022-09-22T01:24:26.532Z,54.03
2022-09-22T01:27:06.897Z,54.15
2022-09-22T01:30:04.890Z,54.19
2022-09-22T01:32:34.703Z,54.25
2022-09-22T01:35:06.471Z,54.15
2022-09-22T01:37:43.767Z,54.18
2022-09-22T01:40:19.622Z,54.12
2022-09-22T01:42:52.600Z,53.90
2022-09-22T01:45:21.848Z,53.93
2022-09-22T01:47:54.666Z,53.95
2022-09-22T01:50:29.760Z,53.99
2022-09-22T01:52:58.862Z,53.80
2022-09-22T01:55:35.395Z,53.98
2022-09-22T01:58:05.871Z,54.01
2022-09-22T02:00:35.278Z,53.99
2022-09-22T02:03:10.730Z,54.13
2022-09-22T02:05:45.310Z,54.46
2022-09-22T02:08:22.162Z,54.53
2022-09-22T02:10:48.893Z,54.50
2022-09-22T02:13:15.850Z,54.49
2022-09-22T02:16:01.983Z,54.32
2022-09-22T02:18:34.243Z,54.50
2022-09-22T02:21:01.500Z,54.50
2022-09-22T02:23:29.076Z,54.34
2022-09-22T02:25:56.427Z,54.13
2022-09-22T02:28:23.588Z,54.22
2022-09-22T02:31:17.650Z,54.09
2022-09-22T02:33:39.409Z,54.08
2022-09-22T02:36:32.471Z,54.28
2022-09-22T02:39:01.572Z,54.33
2022-09-22T02:41:50.027Z,54.44
2022-09-22T02:44:24.077Z,54.77
2022-09-22T02:47:01.385Z,55.04
2022-09-22T02:49:29.612Z,54.98
2022-09-22T02:51:56.579Z,54.98
2022-09-22T02:54:25.672Z,55.04
2022-09-22T02:56:53.945Z,55.12
2022-09-22T02:59:20.689Z,55.23
2022-09-22T03:01:48.320Z,55.50
2022-09-22T03:04:15.713Z,55.53
2022-09-22T03:06:42.556Z,55.68
2022-09-22T03:09:10.222Z,55.90
2022-09-22T03:11:37.680Z,55.87
2022-09-22T03:14:04.319Z,55.84
2022-09-22T03:16:31.471Z,55.99
2022-09-22T03:18:58.673Z,55.86
2022-09-22T03:21:26.700Z,55.93
2022-09-22T03:23:53.954Z,55.96
2022-09-22T03:26:21.414Z,55.88
2022-09-22T03:28:48.361Z,55.81
2022-09-22T03:31:15.453Z,55.94
2022-09-22T03:33:42.778Z,55.95
2022-09-22T03:36:09.832Z,55.96
2022-09-22T03:38:36.686Z,55.92
2022-09-22T03:41:04.655Z,56.00
2022-09-22T03:43:31.607Z,55.81
2022-09-22T03:46:00.190Z,55.77
2022-09-22T03:48:28.575Z,55.75
2022-09-22T03:50:55.822Z,55.60
2022-09-22T03:53:23.228Z,55.63
2022-09-22T03:55:50.648Z,55.64
2022-09-22T03:58:20.257Z,55.48
2022-09-22T04:00:48.435Z,55.47
2022-09-22T04:03:16.918Z,55.61
2022-09-22T04:05:52.363Z,55.78
2022-09-22T04:08:19.619Z,55.74
2022-09-22T04:10:46.463Z,55.72
2022-09-22T04:13:15.149Z,55.96
2022-09-22T04:15:42.307Z,55.98
2022-09-22T04:18:09.869Z,56.49
2022-09-22T04:20:38.840Z,56.71
2022-09-22T04:23:05.658Z,56.70
2022-09-22T04:25:32.351Z,57.29
2022-09-22T04:28:02.302Z,57.34
2022-09-22T04:30:33.171Z,57.74
2022-09-22T04:33:00.666Z,58.29
2022-09-22T04:35:27.921Z,58.28
2022-09-22T04:37:55.552Z,58.18
2022-09-22T04:40:22.873Z,58.51
2022-09-22T04:42:50.809Z,59.01
2022-09-22T04:45:18.371Z,58.67
2022-09-22T04:47:46.853Z,59.27
2022-09-22T04:50:14.117Z,58.94
2022-09-22T04:52:46.817Z,59.34
2022-09-22T04:55:15.295Z,58.68
2022-09-22T04:57:56.482Z,59.41
2022-09-22T05:00:25.954Z,59.09
2022-09-22T05:02:53.201Z,58.93
2022-09-22T05:05:20.108Z,58.68
2022-09-22T05:07:48.513Z,58.32
2022-09-22T05:10:19.501Z,58.16
2022-09-22T05:12:46.196Z,57.95
2022-09-22T05:15:16.535Z,58.34
2022-09-22T05:17:49.221Z,58.30
2022-09-22T05:20:17.715Z,58.53
2022-09-22T05:22:44.665Z,58.14
2022-09-22T05:25:13.573Z,58.00
2022-09-22T05:27:47.905Z,57.72
2022-09-22T05:30:16.696Z,57.54
2022-09-22T05:32:45.700Z,58.01
2022-09-22T05:35:13.889Z,57.93
2022-09-22T05:37:42.481Z,57.72
2022-09-22T05:40:10.487Z,57.15
2022-09-22T05:42:51.237Z,57.25
2022-09-22T05:45:19.933Z,57.24
2022-09-22T05:47:46.711Z,57.14
2022-09-22T05:50:14.831Z,57.20
2022-09-22T05:52:41.782Z,57.17
2022-09-22T05:55:11.540Z,57.20
2022-09-22T05:57:39.242Z,57.05
2022-09-22T06:00:07.488Z,56.82
2022-09-22T06:02:36.205Z,56.89
2022-09-22T06:05:03.455Z,56.66
2022-09-22T06:07:33.075Z,56.53
2022-09-22T06:10:00.347Z,56.60
2022-09-22T06:12:27.703Z,56.67
2022-09-22T06:14:56.503Z,56.66
2022-09-22T06:17:24.369Z,56.29
2022-09-22T06:19:51.729Z,56.47
2022-09-22T06:22:19.085Z,56.57
2022-09-22T06:24:46.233Z,56.37
2022-09-22T06:27:14.409Z,56.20
2022-09-22T06:29:41.054Z,55.81
2022-09-22T06:32:09.380Z,55.51
2022-09-22T06:34:38.040Z,55.77
2022-09-22T06:37:08.243Z,55.34
2022-09-22T06:39:37.829Z,55.30
2022-09-22T06:42:06.541Z,55.10
2022-09-22T06:44:33.281Z,54.92
2022-09-22T06:47:04.851Z,54.74
2022-09-22T06:49:31.682Z,54.54
2022-09-22T06:51:58.423Z,54.69
2022-09-22T06:54:25.990Z,54.57
2022-09-22T06:56:53.548Z,54.88
2022-09-22T06:59:20.371Z,54.68
2022-09-22T07:01:47.629Z,54.47
2022-09-22T07:04:14.718Z,54.46
2022-09-22T07:06:42.900Z,53.73
2022-09-22T07:09:11.999Z,53.87
2022-09-22T07:11:40.682Z,53.78
2022-09-22T07:14:08.127Z,53.60
2022-09-22T07:16:35.752Z,53.23
2022-09-22T07:19:08.723Z,52.98
2022-09-22T07:21:37.314Z,53.02
2022-09-22T07:24:07.707Z,52.90
2022-09-22T07:26:35.430Z,52.85
2022-09-22T07:29:08.057Z,53.00
2022-09-22T07:31:36.334Z,52.84
2022-09-22T07:34:03.358Z,52.46
2022-09-22T07:36:31.947Z,51.70
2022-09-22T07:39:07.158Z,51.47
2022-09-22T07:41:42.547Z,50.67
2022-09-22T07:44:30.397Z,50.31
2022-09-22T07:46:58.264Z,49.58
2022-09-22T07:49:25.942Z,49.60
2022-09-22T07:51:56.986Z,49.14
2022-09-22T07:54:24.964Z,49.14
2022-09-22T07:56:57.545Z,48.05
2022-09-22T07:59:24.597Z,48.76
2022-09-22T08:01:51.766Z,48.26
2022-09-22T08:04:22.263Z,48.17
2022-09-22T08:06:55.512Z,47.94
2022-09-22T08:09:23.980Z,48.27
2022-09-22T08:11:52.467Z,48.71
2022-09-22T08:14:21.975Z,47.97
2022-09-22T08:16:51.057Z,46.76
2022-09-22T08:19:17.936Z,46.95
2022-09-22T08:21:49.178Z,44.97
2022-09-22T08:24:21.755Z,44.91
2022-09-22T08:26:52.776Z,44.85
2022-09-22T08:29:20.641Z,45.20
2022-09-22T08:31:48.806Z,44.47
2022-09-22T08:34:16.709Z,44.19
2022-09-22T08:36:46.682Z,44.33
2022-09-22T08:39:14.240Z,43.38
2022-09-22T08:41:59.619Z,42.62
2022-09-22T08:44:29.391Z,42.15
2022-09-22T08:46:58.874Z,41.45
2022-09-22T08:49:56.951Z,42.06
2022-09-22T08:52:38.244Z,42.46
2022-09-22T08:55:10.920Z,41.75
2022-09-22T08:57:56.463Z,41.40
2022-09-22T09:00:24.092Z,42.37
2022-09-22T09:03:00.247Z,41.49
2022-09-22T09:05:40.879Z,41.62
2022-09-22T09:08:19.399Z,41.25
2022-09-22T09:10:56.896Z,42.27
2022-09-22T09:13:31.936Z,42.01
2022-09-22T09:16:19.272Z,41.15
2022-09-22T09:18:56.551Z,39.99
2022-09-22T09:21:23.498Z,38.36
2022-09-22T09:26:40.950Z,40.36
2022-09-22T09:29:07.960Z,40.91
2022-09-22T09:31:41.098Z,40.97
2022-09-22T09:34:11.684Z,40.59
2022-09-22T09:36:40.642Z,40.08
2022-09-22T09:39:17.913Z,39.76
2022-09-22T09:41:49.573Z,39.68
2022-09-22T09:44:20.463Z,40.17
2022-09-22T09:47:05.288Z,39.88
2022-09-22T09:49:32.955Z,39.63
2022-09-22T09:52:01.235Z,39.66
2022-09-22T09:54:28.371Z,40.13
2022-09-22T09:57:10.399Z,40.29
2022-09-22T09:59:58.030Z,40.09
2022-09-22T10:02:29.278Z,40.23
2022-09-22T10:05:01.135Z,40.19
2022-09-22T10:10:23.473Z,39.92
2022-09-22T10:12:52.172Z,40.30
2022-09-22T10:15:24.255Z,39.82
2022-09-22T10:17:53.042Z,39.66
2022-09-22T10:20:25.964Z,39.59
2022-09-22T10:22:54.511Z,39.67
2022-09-22T10:25:25.353Z,40.01
2022-09-22T10:28:15.234Z,39.84
2022-09-22T10:30:44.677Z,39.92
2022-09-22T10:33:19.819Z,40.24
2022-09-22T10:35:54.094Z,40.26
2022-09-22T10:38:24.732Z,40.80
2022-09-22T10:41:07.404Z,40.26
2022-09-22T10:43:45.345Z,40.46
2022-09-22T10:46:37.946Z,40.25
2022-09-22T10:50:02.791Z,39.07
2022-09-22T10:52:42.432Z,39.42
2022-09-22T10:55:30.471Z,39.72
2022-09-22T10:58:09.397Z,39.61
2022-09-22T11:00:39.927Z,39.94
2022-09-22T11:03:08.213Z,40.40
2022-09-22T11:06:23.945Z,39.70
2022-09-22T11:09:23.192Z,38.15
2022-09-22T11:12:16.254Z,36.78
2022-09-22T11:14:49.541Z,37.95
2022-09-22T11:17:32.056Z,38.41
2022-09-22T11:20:26.954Z,38.67
2022-09-22T11:23:03.421Z,38.76
2022-09-22T11:25:42.656Z,38.64
2022-09-22T11:28:47.185Z,38.17
2022-09-22T11:31:31.440Z,38.46
2022-09-22T11:34:22.656Z,38.26
2022-09-22T11:37:27.293Z,38.62
2022-09-22T11:40:01.271Z,38.84
2022-09-22T11:42:38.494Z,39.10
2022-09-22T11:45:43.648Z,38.82
2022-09-22T11:48:42.845Z,39.35
2022-09-22T11:51:33.957Z,39.08
2022-09-22T11:54:04.419Z,38.88
2022-09-22T11:57:06.981Z,38.76
2022-09-22T11:59:39.765Z,39.35
2022-09-22T12:02:32.260Z,39.29
2022-09-22T12:05:02.346Z,39.14
2022-09-22T12:07:35.151Z,39.00
2022-09-22T12:10:12.728Z,39.11
2022-09-22T12:12:43.359Z,39.07
2022-09-22T12:15:21.902Z,39.32
2022-09-22T12:17:54.879Z,38.81
2022-09-22T12:20:35.045Z,38.89
2022-09-22T12:23:08.444Z,38.70
2022-09-22T12:25:48.994Z,38.22
2022-09-22T12:28:25.594Z,38.22
2022-09-22T12:31:04.533Z,38.50
2022-09-22T12:33:33.273Z,38.96
2022-09-22T12:36:00.986Z,38.94
2022-09-22T12:38:30.090Z,38.96
2022-09-22T12:40:59.300Z,38.99
2022-09-22T12:43:27.366Z,38.85
2022-09-22T12:45:55.267Z,38.83
2022-09-22T12:48:30.588Z,38.93
2022-09-22T12:51:25.908Z,38.93
2022-09-22T12:54:22.352Z,38.90
2022-09-22T12:59:37.552Z,38.69
2022-09-22T13:02:16.860Z,38.59
2022-09-22T13:04:56.655Z,38.90
2022-09-22T13:07:40.701Z,38.73
2022-09-22T13:10:24.599Z,38.58
2022-09-22T13:13:00.424Z,38.39
2022-09-22T13:15:39.551Z,38.56
2022-09-22T13:18:29.068Z,38.67
2022-09-22T13:20:57.411Z,38.73
2022-09-22T13:23:25.885Z,38.69
2022-09-22T13:25:54.996Z,38.61
2022-09-22T13:28:23.818Z,38.72
2022-09-22T13:31:16.416Z,38.78
2022-09-22T13:33:43.585Z,38.87
2022-09-22T13:36:18.731Z,38.47
2022-09-22T13:38:53.970Z,38.27
2022-09-22T13:41:23.950Z,39.02
2022-09-22T13:43:56.361Z,39.48
2022-09-22T13:46:47.678Z,39.83
2022-09-22T13:49:34.183Z,40.54
2022-09-22T13:52:04.754Z,41.21
2022-09-22T13:54:33.402Z,41.57
2022-09-22T13:57:01.015Z,41.95
2022-09-22T13:59:34.487Z,42.02
2022-09-22T14:02:11.290Z,42.03
2022-09-22T14:04:49.778Z,42.01
2022-09-22T14:07:16.433Z,42.19
2022-09-22T14:09:43.466Z,41.96
2022-09-22T14:12:11.336Z,41.92
2022-09-22T14:14:39.928Z,41.68
2022-09-22T14:17:19.262Z,41.45
2022-09-22T14:19:54.711Z,41.20
2022-09-22T14:22:24.239Z,41.19
2022-09-22T14:24:55.473Z,41.20
2022-09-22T14:27:31.939Z,41.18
2022-09-22T14:29:58.685Z,41.20
2022-09-22T14:32:32.909Z,41.16
2022-09-22T14:35:02.479Z,41.37
2022-09-22T14:37:38.759Z,41.63
2022-09-22T14:40:13.813Z,41.70
2022-09-22T14:42:41.689Z,41.85
2022-09-22T14:45:08.943Z,42.04
2022-09-22T14:47:40.032Z,42.10
2022-09-22T14:50:19.406Z,42.34
2022-09-22T14:52:55.606Z,42.52
2022-09-22T14:55:33.933Z,42.68
2022-09-22T14:58:29.051Z,42.89
2022-09-22T15:01:18.046Z,43.21
2022-09-22T15:04:02.275Z,43.28
2022-09-22T15:06:39.366Z,43.36
2022-09-22T15:09:07.897Z,43.64
2022-09-22T15:11:46.719Z,43.63
2022-09-22T15:14:32.266Z,43.71
2022-09-22T15:17:22.671Z,43.75
2022-09-22T15:19:56.535Z,43.58
2022-09-22T15:22:23.605Z,43.72
2022-09-22T15:24:50.593Z,43.91
2022-09-22T15:27:18.990Z,44.03
2022-09-22T15:29:48.078Z,44.35
2022-09-22T15:32:16.051Z,44.30
2022-09-22T15:34:44.237Z,44.36
2022-09-22T15:37:20.720Z,44.53
2022-09-22T15:39:47.671Z,44.64
2022-09-22T15:42:15.130Z,44.59
2022-09-22T15:44:43.444Z,44.73
2022-09-22T15:47:13.851Z,44.95
2022-09-22T15:49:42.234Z,45.22
2022-09-22T15:52:11.053Z,45.17
2022-09-22T15:54:38.387Z,45.15
2022-09-22T15:57:06.007Z,45.19
2022-09-22T15:59:33.209Z,45.12
2022-09-22T16:02:00.670Z,45.20
2022-09-22T16:04:31.818Z,45.23
2022-09-22T16:06:59.991Z,45.23
2022-09-22T16:09:27.756Z,45.27
2022-09-22T16:11:55.321Z,45.52
2022-09-22T16:14:24.830Z,45.45
2022-09-22T16:16:52.188Z,45.67
2022-09-22T16:19:19.854Z,45.75
2022-09-22T16:21:51.312Z,45.84
2022-09-22T16:24:18.466Z,45.89
2022-09-22T16:26:45.617Z,45.84
2022-09-22T16:29:12.571Z,45.79
2022-09-22T16:31:39.241Z,45.98
2022-09-22T16:34:07.352Z,45.98
2022-09-22T16:36:35.469Z,46.00
2022-09-22T16:39:02.975Z,45.99
2022-09-22T16:41:31.582Z,46.03
2022-09-22T16:43:58.962Z,46.12
2022-09-22T16:46:26.120Z,46.18
2022-09-22T16:48:59.665Z,46.17
2022-09-22T16:51:27.204Z,46.24
2022-09-22T16:53:54.360Z,46.41
2022-09-22T16:56:23.109Z,46.37
2022-09-22T16:58:50.207Z,46.52
2022-09-22T17:01:19.786Z,46.62
2022-09-22T17:03:49.132Z,46.43
2022-09-22T17:06:16.800Z,46.53
2022-09-22T17:08:45.395Z,46.53
2022-09-22T17:11:13.374Z,46.60
2022-09-22T17:13:42.826Z,46.51
2022-09-22T17:16:24.406Z,46.63
2022-09-22T17:18:52.365Z,46.52
2022-09-22T17:21:22.800Z,46.57
2022-09-22T17:23:51.899Z,46.55
2022-09-22T17:26:19.777Z,46.37
2022-09-22T17:28:47.038Z,46.52
2022-09-22T17:31:14.489Z,46.54
2022-09-22T17:33:47.886Z,46.76
2022-09-22T17:36:21.934Z,46.74
2022-09-22T17:38:52.762Z,46.69
2022-09-22T17:41:24.840Z,46.75
2022-09-22T17:43:55.174Z,46.77
2022-09-22T17:46:24.565Z,46.81
2022-09-22T17:49:09.961Z,46.83
2022-09-22T17:52:00.464Z,46.85
2022-09-22T17:54:50.662Z,46.80
2022-09-22T17:57:23.659Z,46.90
2022-09-22T17:59:51.227Z,46.98
2022-09-22T18:02:19.068Z,47.02
2022-09-22T18:04:46.766Z,46.98
2022-09-22T18:07:17.507Z,47.00
2022-09-22T18:09:46.708Z,46.85
2022-09-22T18:12:16.013Z,46.90
2022-09-22T18:14:46.653Z,47.05
2022-09-22T18:17:14.588Z,47.58
2022-09-22T18:19:43.988Z,47.61
2022-09-22T18:22:20.619Z,47.77
2022-09-22T18:24:50.942Z,47.85
2022-09-22T18:27:21.552Z,47.86
2022-09-22T18:29:53.036Z,48.24
2022-09-22T18:32:20.809Z,48.23
2022-09-22T18:34:50.734Z,48.20
2022-09-22T18:37:17.854Z,48.25
2022-09-22T18:39:45.360Z,48.20
2022-09-22T18:42:12.727Z,48.21
2022-09-22T18:44:40.907Z,48.34
2022-09-22T18:47:12.428Z,48.41
2022-09-22T18:49:40.503Z,48.44
2022-09-22T18:52:11.861Z,48.70
2022-09-22T18:54:42.555Z,48.69
2022-09-22T18:57:13.708Z,48.94
2022-09-22T18:59:40.871Z,48.93
2022-09-22T19:02:11.792Z,49.11
2022-09-22T19:04:40.202Z,49.34
2022-09-22T19:07:26.822Z,49.19
2022-09-22T19:09:54.492Z,49.31
2022-09-22T19:12:21.241Z,49.36
2022-09-22T19:14:49.635Z,49.52
2022-09-22T19:17:19.357Z,49.43
2022-09-22T19:19:48.452Z,49.58
2022-09-22T19:22:16.422Z,49.69
2022-09-22T19:24:46.848Z,49.61
2022-09-22T19:27:15.235Z,49.66
2022-09-22T19:29:42.284Z,49.68
2022-09-22T19:32:09.750Z,49.66
2022-09-22T19:34:37.417Z,49.75
2022-09-22T19:37:04.879Z,49.92
2022-09-22T19:39:32.344Z,49.84
2022-09-22T19:42:02.576Z,49.86
2022-09-22T19:44:30.163Z,49.94
2022-09-22T19:46:58.322Z,49.77
2022-09-22T19:49:25.065Z,49.83
2022-09-22T19:51:53.037Z,50.00
2022-09-22T19:54:20.507Z,49.91
2022-09-22T19:56:47.671Z,50.14
2022-09-22T19:59:19.237Z,50.06
2022-09-22T20:01:47.497Z,49.95
2022-09-22T20:04:18.896Z,50.19
2022-09-22T20:06:45.849Z,50.12
2022-09-22T20:09:12.901Z,50.14
2022-09-22T20:11:45.593Z,50.31
2022-09-22T20:14:23.092Z,50.54
2022-09-22T20:16:54.246Z,50.59
2022-09-22T20:19:21.900Z,50.53
2022-09-22T20:21:51.206Z,50.12
2022-09-22T20:24:19.406Z,50.06
2022-09-22T20:26:46.362Z,50.03
2022-09-22T20:29:16.511Z,49.94
2022-09-22T20:31:45.591Z,50.15
2022-09-22T20:34:14.495Z,50.33
2022-09-22T20:36:42.814Z,50.62
2022-09-22T20:39:13.213Z,50.29
2022-09-22T20:41:41.196Z,50.20
2022-09-22T20:44:14.091Z,50.18
2022-09-22T20:46:44.364Z,50.21
2022-09-22T20:49:14.045Z,50.19
2022-09-22T20:51:41.611Z,50.34
2022-09-22T20:54:08.868Z,50.38
2022-09-22T20:56:39.440Z,50.37
2022-09-22T20:59:09.431Z,50.32
2022-09-22T21:01:36.875Z,50.32
2022-09-22T21:04:04.466Z,50.24
2022-09-22T21:06:31.419Z,50.35
2022-09-22T21:09:17.018Z,50.65
2022-09-22T21:11:46.621Z,50.51
2022-09-22T21:14:14.904Z,50.61
2022-09-22T21:16:42.572Z,50.77
2022-09-22T21:19:09.523Z,50.70
2022-09-22T21:21:37.191Z,50.70
2022-09-22T21:24:05.479Z,50.75
2022-09-22T21:26:33.584Z,50.85
2022-09-22T21:29:01.327Z,50.85
2022-09-22T21:31:28.370Z,50.92
2022-09-22T21:33:55.429Z,51.14
2022-09-22T21:36:22.689Z,51.08
2022-09-22T21:38:54.672Z,51.13
2022-09-22T21:41:23.247Z,51.16
2022-09-22T21:43:50.303Z,51.08
2022-09-22T21:46:21.405Z,51.28
2022-09-22T21:48:48.614Z,51.18
2022-09-22T21:51:18.936Z,51.25
2022-09-22T21:53:47.940Z,51.19
2022-09-22T21:56:16.637Z,51.12
2022-09-22T21:58:47.067Z,51.38
2022-09-22T22:01:19.390Z,51.34
2022-09-22T22:03:47.752Z,51.12
2022-09-22T22:06:28.091Z,51.44
2022-09-22T22:09:04.052Z,51.37
2022-09-22T22:11:40.131Z,51.45
2022-09-22T22:14:08.790Z,51.39
2022-09-22T22:16:43.855Z,51.55
2022-09-22T22:19:12.140Z,51.52
2022-09-22T22:21:43.904Z,51.60
2022-09-22T22:24:17.827Z,51.63
2022-09-22T22:26:46.829Z,51.70
2022-09-22T22:29:13.872Z,51.66
2022-09-22T22:31:43.054Z,51.70
2022-09-22T22:34:11.368Z,51.61
2022-09-22T22:36:38.827Z,51.60
2022-09-22T22:39:05.985Z,51.46
2022-09-22T22:41:33.953Z,51.65
2022-09-22T22:44:01.931Z,51.79
2022-09-22T22:46:29.646Z,51.98
2022-09-22T22:48:57.136Z,51.65
2022-09-22T22:51:24.019Z,51.91
2022-09-22T22:53:51.421Z,51.76
2022-09-22T22:56:21.526Z,51.62
2022-09-22T22:58:50.094Z,51.78
2022-09-22T23:01:21.823Z,51.99
2022-09-22T23:03:52.721Z,51.79
2022-09-22T23:06:24.686Z,51.95
2022-09-22T23:08:52.046Z,52.21
2022-09-22T23:11:22.681Z,52.21
2022-09-22T23:13:53.520Z,52.17
2022-09-22T23:16:23.140Z,52.25
2022-09-22T23:18:51.213Z,52.28
2022-09-22T23:21:20.065Z,52.38
2022-09-22T23:23:47.376Z,52.33
2022-09-22T23:26:15.040Z,52.14
2022-09-22T23:28:42.506Z,52.29
2022-09-22T23:31:11.781Z,52.64
2022-09-22T23:33:44.875Z,52.87
2022-09-22T23:36:19.338Z,52.97
2022-09-22T23:38:46.898Z,52.90
2022-09-22T23:41:14.873Z,52.88
2022-09-22T23:43:42.238Z,52.75
2022-09-22T23:46:09.728Z,52.54
2022-09-22T23:48:36.758Z,52.70
2022-09-22T23:51:03.920Z,52.77
2022-09-22T23:53:33.362Z,52.83
2022-09-22T23:56:02.037Z,52.95
2022-09-22T23:58:29.740Z,53.19
